Des Peres, Missouri
Current Conditions -  °F | °C
As of 4:51 AM on Friday 28 Nov 2014 (Local Time) from KSTL Reporting Station
Few Clouds Few Clouds  
Wind Chill: -8°   Ceiling: Unl
Heat Index: -3°   Visibility: 9mi
Dew Point: -7°   Wind: 9mph
Humidity: 78%   Direction: 120°ESE
Pressure: 30.31"   Gusts: NA
Location:  38.5796°N, 90.4197°W
Report Text: KSTL 281051Z 12008KT 9SM FEW130 M03/M07 A3031 RMK AO2 SLP277 T10331067 $
Loading
Personal Weather Stations






























Interactive Weather Map New forecast layout! Learn more

10-Day Weather Forecast

Advertisements
Track Severe Weather on mobile